Time;durP1;ratioP1;P1;durP2;ratioP2;P2;SDS_P1;SDS_P2;PMS_P1;PMS_P2;Temp;Humidity;BMP_temperature;BMP_pressure;BME280_temperature;BME280_humidity;BME280_pressure;Samples;Min_cycle;Max_cycle;Signal;HPM_P1;HPM_P2
2023/07/05 00:00:45;;;;;;;3.42;1.33;;;;;;;20.25;100.00;100498.09;5058449;28;20040;-64
2023/07/05 00:03:10;;;;;;;3.72;1.50;;;;;;;20.25;100.00;100508.69;5064239;28;20448;-64
2023/07/05 00:05:37;;;;;;;3.65;1.13;;;;;;;20.23;100.00;100500.13;5064032;28;20043;-64
2023/07/05 00:08:03;;;;;;;3.78;1.48;;;;;;;20.21;100.00;100495.88;5067144;28;20038;-64
2023/07/05 00:10:28;;;;;;;4.38;1.73;;;;;;;20.19;100.00;100503.19;5066744;28;20025;-64
2023/07/05 00:12:54;;;;;;;3.88;1.40;;;;;;;20.15;100.00;100494.03;5061866;28;20037;-64
2023/07/05 00:15:19;;;;;;;4.20;1.50;;;;;;;20.13;100.00;100490.78;5068055;28;20021;-64
2023/07/05 00:17:44;;;;;;;2.88;1.40;;;;;;;20.13;100.00;100484.69;5073572;28;20106;-64
2023/07/05 00:20:10;;;;;;;2.30;1.33;;;;;;;20.11;100.00;100481.44;5068479;28;20050;-64
2023/07/05 00:22:36;;;;;;;3.80;1.48;;;;;;;20.22;99.18;100483.44;5064159;28;20590;-64
2023/07/05 00:25:02;;;;;;;2.53;1.35;;;;;;;20.29;99.04;100475.50;5061939;28;20153;-64
2023/07/05 00:27:28;;;;;;;4.15;1.40;;;;;;;20.34;98.11;100470.38;5067089;28;20032;-64
2023/07/05 00:29:53;;;;;;;4.45;1.38;;;;;;;20.35;97.97;100467.53;5067783;28;20020;-64
2023/07/05 00:32:20;;;;;;;2.60;1.40;;;;;;;20.28;99.13;100460.66;5067806;28;20043;-64
2023/07/05 00:34:46;;;;;;;3.22;1.30;;;;;;;20.19;100.00;100465.34;5066912;28;20488;-64
2023/07/05 00:37:12;;;;;;;2.00;1.25;;;;;;;20.12;100.00;100473.28;5067066;28;20114;-64
2023/07/05 00:39:37;;;;;;;4.13;1.23;;;;;;;20.07;100.00;100470.44;5069112;28;20480;-64
2023/07/05 00:42:04;;;;;;;3.33;1.42;;;;;;;19.97;100.00;100464.78;5067342;28;20043;-64
2023/07/05 00:44:29;;;;;;;2.78;1.00;;;;;;;19.88;100.00;100468.63;5065627;28;20041;-64
2023/07/05 00:47:18;;;;;;;2.40;1.33;;;;;;;19.85;100.00;100467.22;5068347;28;20487;-64
2023/07/05 00:49:44;;;;;;;3.40;1.17;;;;;;;19.81;100.00;100466.03;5054862;28;20100;-64
2023/07/05 00:52:13;;;;;;;2.47;1.48;;;;;;;19.84;100.00;100470.91;5069395;28;20475;-64
2023/07/05 00:54:44;;;;;;;2.88;1.13;;;;;;;19.84;100.00;100475.38;5062096;28;20033;-64
2023/07/05 00:57:24;;;;;;;3.10;1.20;;;;;;;19.75;100.00;100481.88;5063260;28;20032;-64
2023/07/05 00:59:57;;;;;;;3.33;1.40;;;;;;;19.75;100.00;100481.88;5065803;28;20044;-64
2023/07/05 01:02:23;;;;;;;4.90;1.88;;;;;;;19.77;100.00;100483.31;5066666;28;20028;-64
2023/07/05 01:04:49;;;;;;;3.83;2.15;;;;;;;19.78;100.00;100465.63;5065370;28;20033;-64
2023/07/05 01:07:15;;;;;;;4.25;1.50;;;;;;;19.85;100.00;100469.03;5068782;28;20021;-64
2023/07/05 01:09:41;;;;;;;2.25;1.33;;;;;;;19.88;100.00;100473.94;5059347;28;20043;-64
2023/07/05 01:12:10;;;;;;;4.75;1.67;;;;;;;19.86;100.00;100468.84;5062704;28;20028;-64
2023/07/05 01:14:55;;;;;;;2.78;1.50;;;;;;;19.78;100.00;100466.44;5063465;28;20050;-64
2023/07/05 01:17:26;;;;;;;2.78;1.60;;;;;;;19.71;100.00;100475.38;5066878;28;20075;-64
2023/07/05 01:20:01;;;;;;;2.28;1.38;;;;;;;19.65;100.00;100476.19;5066127;28;20033;-64
2023/07/05 01:22:32;;;;;;;2.15;1.13;;;;;;;19.62;100.00;100468.66;5069498;28;20102;-64
2023/07/05 01:25:06;;;;;;;2.15;1.10;;;;;;;19.55;100.00;100469.47;5060923;28;20126;-64
2023/07/05 01:27:56;;;;;;;2.60;1.58;;;;;;;19.52;100.00;100477.00;5065082;28;20493;-64
2023/07/05 01:30:51;;;;;;;5.10;1.58;;;;;;;19.47;100.00;100476.75;5068460;28;20112;-64
2023/07/05 01:33:21;;;;;;;4.63;1.20;;;;;;;19.42;100.00;100474.72;5069109;28;20039;-65
2023/07/05 01:35:54;;;;;;;4.80;1.58;;;;;;;19.47;100.00;100469.63;5067420;28;20115;-64
2023/07/05 01:38:19;;;;;;;2.85;1.33;;;;;;;19.59;100.00;100471.72;5068297;28;20048;-64
2023/07/05 01:40:45;;;;;;;2.72;1.45;;;;;;;19.67;100.00;100479.44;5068292;28;20034;-64
2023/07/05 01:43:14;;;;;;;2.25;1.67;;;;;;;19.61;100.00;100482.91;5054972;28;20103;-63
2023/07/05 01:45:45;;;;;;;2.53;1.60;;;;;;;19.56;100.00;100480.84;5069307;28;20040;-64
2023/07/05 01:48:32;;;;;;;6.35;1.80;;;;;;;19.49;100.00;100477.38;5068139;28;20515;-64
2023/07/05 01:51:07;;;;;;;3.72;1.55;;;;;;;19.45;100.00;100481.41;5065511;28;20515;-64
2023/07/05 01:53:42;;;;;;;3.60;1.75;;;;;;;19.44;100.00;100479.78;5063480;28;20027;-63
2023/07/05 01:56:18;;;;;;;4.43;1.95;;;;;;;19.46;100.00;100483.88;5058834;28;20423;-64
2023/07/05 01:58:48;;;;;;;2.92;1.70;;;;;;;19.56;100.00;100483.50;5060535;28;20055;-64
2023/07/05 02:01:16;;;;;;;2.70;1.48;;;;;;;19.70;100.00;100493.06;5069971;28;20340;-64
2023/07/05 02:03:43;;;;;;;3.40;1.73;;;;;;;19.72;100.00;100500.78;5067232;28;20120;-64
2023/07/05 02:06:10;;;;;;;2.65;1.52;;;;;;;19.65;100.00;100513.19;5061471;28;20035;-63
2023/07/05 02:08:39;;;;;;;2.25;1.30;;;;;;;19.61;100.00;100519.91;5070939;28;20039;-64
2023/07/05 02:11:05;;;;;;;5.28;1.27;;;;;;;19.54;100.00;100520.69;5065132;28;20022;-64
2023/07/05 02:13:31;;;;;;;7.03;1.85;;;;;;;19.54;100.00;100523.34;5060006;28;20028;-64
2023/07/05 02:15:57;;;;;;;7.00;1.58;;;;;;;19.61;100.00;100522.53;5065328;28;20081;-64
2023/07/05 02:18:22;;;;;;;5.80;1.60;;;;;;;19.75;100.00;100529.47;5068667;28;20116;-64
2023/07/05 02:20:47;;;;;;;2.13;1.20;;;;;;;19.92;100.00;100530.66;5070280;28;20028;-64
2023/07/05 02:23:13;;;;;;;2.03;1.30;;;;;;;20.08;100.00;100529.44;5069361;28;20039;-64
2023/07/05 02:25:39;;;;;;;3.92;1.15;;;;;;;20.20;99.15;100530.47;5064760;28;20024;-64
2023/07/05 02:28:08;;;;;;;2.55;0.88;;;;;;;20.31;98.53;100534.31;5070230;28;20025;-64
2023/07/05 02:30:40;;;;;;;2.00;1.15;;;;;;;20.32;98.87;100539.38;5068969;28;20041;-64
2023/07/05 02:33:06;;;;;;;1.70;1.00;;;;;;;20.29;98.84;100523.13;5058439;28;20025;-64
2023/07/05 02:35:35;;;;;;;3.22;1.08;;;;;;;20.27;97.78;100522.53;5064910;28;20048;-64
2023/07/05 02:38:01;;;;;;;4.45;0.80;;;;;;;20.36;97.34;100521.25;5070316;28;20389;-64
2023/07/05 02:40:27;;;;;;;2.05;1.30;;;;;;;20.41;95.77;100521.47;5072739;28;20063;-64
2023/07/05 02:42:52;;;;;;;2.05;1.15;;;;;;;20.47;95.09;100518.81;5073242;28;20055;-64
2023/07/05 02:45:18;;;;;;;1.75;0.80;;;;;;;20.47;94.53;100513.53;5066610;28;20059;-65
2023/07/05 02:47:43;;;;;;;2.15;0.70;;;;;;;20.51;94.51;100508.63;5067879;28;20024;-64
2023/07/05 02:50:09;;;;;;;1.73;0.55;;;;;;;20.48;93.74;100517.00;5065459;28;20116;-64
2023/07/05 02:52:35;;;;;;;1.15;0.57;;;;;;;20.50;94.37;100514.94;5072701;28;20032;-64
2023/07/05 02:55:00;;;;;;;1.75;0.60;;;;;;;20.43;93.78;100506.22;5058829;28;20029;-65
2023/07/05 02:57:26;;;;;;;0.98;0.45;;;;;;;20.42;92.96;100507.22;5072715;28;20029;-64
2023/07/05 02:59:51;;;;;;;0.95;0.63;;;;;;;20.40;93.84;100511.91;5071860;28;20033;-65
2023/07/05 03:02:16;;;;;;;3.85;0.75;;;;;;;20.28;93.44;100505.63;5066203;28;20044;-64
2023/07/05 03:04:42;;;;;;;2.58;0.70;;;;;;;20.32;94.28;100506.84;5072047;28;20032;-64
2023/07/05 03:07:08;;;;;;;1.55;0.60;;;;;;;20.23;93.91;100502.78;5067042;28;20032;-64
2023/07/05 03:09:34;;;;;;;2.22;1.23;;;;;;;20.30;93.34;100503.59;5056324;28;20139;-64
2023/07/05 03:11:59;;;;;;;2.45;1.05;;;;;;;20.36;93.51;100500.09;5071051;28;20467;-64
2023/07/05 03:14:25;;;;;;;4.38;1.33;;;;;;;20.41;93.59;100502.94;5065182;28;20036;-65
2023/07/05 03:16:50;;;;;;;2.20;0.70;;;;;;;20.44;93.50;100507.84;5069013;28;20107;-64
2023/07/05 03:19:16;;;;;;;1.50;0.90;;;;;;;20.37;93.98;100499.88;5069024;28;20119;-64
2023/07/05 03:21:43;;;;;;;3.30;0.70;;;;;;;20.47;94.04;100495.00;5066252;28;20031;-64
2023/07/05 03:24:08;;;;;;;2.53;1.00;;;;;;;20.45;95.46;100498.88;5071812;28;20028;-65
2023/07/05 03:26:34;;;;;;;1.48;0.80;;;;;;;20.39;96.22;100491.75;5067783;28;20368;-64
2023/07/05 03:29:02;;;;;;;2.42;1.13;;;;;;;20.29;96.99;100502.78;5065597;28;20391;-64
2023/07/05 03:31:28;;;;;;;2.47;1.05;;;;;;;20.31;96.98;100498.09;5068203;28;20033;-64
2023/07/05 03:33:53;;;;;;;2.95;1.35;;;;;;;20.28;98.01;100495.03;5071158;28;20086;-64
2023/07/05 03:36:20;;;;;;;6.03;2.22;;;;;;;20.26;98.56;100491.78;5068357;28;20036;-65
2023/07/05 03:38:45;;;;;;;3.25;1.67;;;;;;;20.21;97.46;100480.00;5069786;28;20040;-64
2023/07/05 03:41:16;;;;;;;3.30;1.38;;;;;;;20.43;94.46;100474.47;5067110;28;20101;-64
2023/07/05 03:43:43;;;;;;;1.75;0.82;;;;;;;20.80;91.27;100471.03;5065130;28;20067;-65
2023/07/05 03:46:11;;;;;;;2.97;1.20;;;;;;;21.02;89.01;100468.91;5067232;28;20021;-65
2023/07/05 03:48:39;;;;;;;3.67;1.63;;;;;;;21.17;87.37;100465.97;5059665;28;20032;-65
2023/07/05 03:51:04;;;;;;;2.72;1.00;;;;;;;21.22;86.88;100460.88;5071880;28;20059;-64
2023/07/05 03:53:33;;;;;;;7.20;1.17;;;;;;;21.19;86.51;100459.44;5067101;28;20075;-64
2023/07/05 03:56:04;;;;;;;4.72;0.90;;;;;;;21.23;85.56;100467.78;5068695;28;20056;-64
2023/07/05 03:58:29;;;;;;;1.60;1.00;;;;;;;21.28;85.26;100472.41;5067405;28;20032;-65
2023/07/05 04:01:07;;;;;;;4.63;1.17;;;;;;;21.35;84.34;100462.59;5068425;28;20448;-64
2023/07/05 04:03:33;;;;;;;3.90;1.38;;;;;;;21.41;83.96;100457.25;5064091;28;20438;-64
2023/07/05 04:05:58;;;;;;;2.72;0.88;;;;;;;21.53;82.98;100446.75;5062841;28;20419;-64
2023/07/05 04:08:24;;;;;;;2.78;0.98;;;;;;;21.58;82.68;100440.81;5059873;28;20032;-64
2023/07/05 04:10:49;;;;;;;1.52;0.80;;;;;;;21.69;81.54;100442.75;5066884;28;20051;-63
2023/07/05 04:13:15;;;;;;;2.05;0.85;;;;;;;21.72;81.17;100432.53;5067209;28;20025;-64
2023/07/05 04:15:40;;;;;;;2.55;1.10;;;;;;;21.83;80.14;100433.63;5054574;28;20032;-65
2023/07/05 04:18:06;;;;;;;2.95;1.25;;;;;;;21.92;79.21;100420.91;5058792;28;20392;-64
2023/07/05 04:20:32;;;;;;;3.40;0.90;;;;;;;22.00;77.46;100423.28;5060795;28;20033;-64
2023/07/05 04:23:00;;;;;;;4.45;0.65;;;;;;;22.05;76.84;100415.50;5057709;28;20032;-66
2023/07/05 04:25:26;;;;;;;2.17;0.88;;;;;;;22.12;76.47;100411.75;5058642;28;20036;-64
2023/07/05 04:27:51;;;;;;;1.50;0.98;;;;;;;22.13;76.25;100413.38;5073011;28;20127;-64
2023/07/05 04:30:17;;;;;;;1.58;0.90;;;;;;;22.15;76.66;100398.03;5060810;28;20033;-63
2023/07/05 04:32:42;;;;;;;2.90;0.85;;;;;;;22.20;76.57;100402.69;5067243;28;20032;-64
2023/07/05 04:35:08;;;;;;;2.75;1.17;;;;;;;22.25;77.80;100405.44;5067957;28;20025;-63
2023/07/05 04:37:33;;;;;;;1.85;1.10;;;;;;;22.28;78.44;100398.91;5061251;28;20037;-64
2023/07/05 04:39:58;;;;;;;2.50;1.33;;;;;;;22.32;78.21;100395.56;5067043;28;20024;-64
2023/07/05 04:42:24;;;;;;;4.63;1.50;;;;;;;22.34;78.07;100384.72;5062631;28;20036;-63
2023/07/05 04:44:50;;;;;;;4.63;1.33;;;;;;;22.39;77.37;100377.72;5062102;28;20029;-64
2023/07/05 04:47:16;;;;;;;2.47;1.42;;;;;;;22.45;77.59;100376.03;5070038;28;20021;-64
2023/07/05 04:49:41;;;;;;;4.03;1.15;;;;;;;22.54;77.16;100369.38;5065884;28;20111;-64
2023/07/05 04:52:07;;;;;;;3.15;1.13;;;;;;;22.54;77.18;100372.03;5059969;28;20027;-65
2023/07/05 04:54:33;;;;;;;6.95;1.10;;;;;;;22.51;77.28;100375.13;5064966;28;20435;-64
2023/07/05 04:56:58;;;;;;;3.38;1.45;;;;;;;22.38;77.48;100377.94;5065605;28;20033;-64
2023/07/05 04:59:24;;;;;;;2.08;1.17;;;;;;;22.38;77.15;100380.59;5060164;28;20028;-63
2023/07/05 05:01:49;;;;;;;3.05;1.50;;;;;;;22.39;77.81;100385.69;5069473;28;20036;-63
2023/07/05 05:04:15;;;;;;;2.92;1.55;;;;;;;22.45;78.09;100384.78;5059430;28;20033;-63
2023/07/05 05:06:40;;;;;;;3.22;0.82;;;;;;;22.39;77.95;100391.00;5062834;28;20387;-63
2023/07/05 05:09:06;;;;;;;1.95;0.80;;;;;;;22.34;78.06;100395.34;5064873;28;20044;-63
2023/07/05 05:11:32;;;;;;;1.52;1.00;;;;;;;22.29;78.36;100397.84;5058744;28;20087;-63
2023/07/05 05:13:57;;;;;;;2.38;1.02;;;;;;;22.24;78.63;100400.38;5062049;28;20538;-64
2023/07/05 05:16:22;;;;;;;2.10;0.98;;;;;;;22.35;78.82;100404.94;5066973;28;20028;-64
2023/07/05 05:18:48;;;;;;;4.43;1.13;;;;;;;22.28;78.27;100409.50;5063342;28;20020;-64
2023/07/05 05:21:14;;;;;;;4.00;1.13;;;;;;;22.16;78.37;100420.88;5068715;28;20032;-65
2023/07/05 05:23:39;;;;;;;1.58;1.15;;;;;;;22.14;78.52;100420.28;5067813;28;20071;-64
2023/07/05 05:26:05;;;;;;;2.20;1.17;;;;;;;22.22;79.04;100426.31;5067732;28;20017;-64
2023/07/05 05:28:30;;;;;;;4.30;1.00;;;;;;;22.17;79.30;100424.34;5066451;28;20158;-64
2023/07/05 05:31:08;;;;;;;1.63;1.00;;;;;;;22.29;77.50;100430.50;5070006;28;20055;-64
2023/07/05 05:33:34;;;;;;;4.68;1.55;;;;;;;22.41;78.22;100426.09;5073427;28;20025;-64
2023/07/05 05:36:00;;;;;;;2.20;1.38;;;;;;;22.57;77.41;100437.94;5067704;28;20186;-65
2023/07/05 05:38:25;;;;;;;2.53;1.05;;;;;;;22.69;77.35;100433.47;5069676;28;20481;-64
2023/07/05 05:40:51;;;;;;;2.75;1.00;;;;;;;22.87;77.53;100439.81;5067926;28;20070;-65
2023/07/05 05:43:17;;;;;;;2.75;1.00;;;;;;;23.03;76.78;100440.00;5066438;28;20401;-65
2023/07/05 05:45:43;;;;;;;6.22;1.05;;;;;;;23.14;76.64;100441.09;5074024;28;20119;-64
2023/07/05 05:48:09;;;;;;;4.47;1.10;;;;;;;23.18;76.38;100442.22;5070368;28;20111;-65
2023/07/05 05:50:35;;;;;;;2.50;1.45;;;;;;;23.07;76.80;100451.81;5070238;28;20029;-65
2023/07/05 05:53:02;;;;;;;2.83;1.10;;;;;;;22.94;77.72;100452.00;5074870;28;20036;-67
2023/07/05 05:55:28;;;;;;;4.47;1.35;;;;;;;23.00;76.94;100458.25;5070820;28;20057;-66
2023/07/05 05:57:53;;;;;;;3.20;0.98;;;;;;;22.87;76.75;100464.53;5071712;28;20029;-67
2023/07/05 06:00:19;;;;;;;2.13;0.90;;;;;;;22.73;77.02;100455.91;5077443;28;20047;-66
2023/07/05 06:02:44;;;;;;;3.60;0.70;;;;;;;22.71;77.27;100465.94;5067647;28;20168;-67
2023/07/05 06:05:11;;;;;;;2.17;1.30;;;;;;;22.68;77.43;100461.09;5073734;28;20040;-66
2023/07/05 06:07:38;;;;;;;2.35;1.15;;;;;;;22.71;78.91;100465.94;5064929;28;20048;-66
2023/07/05 06:10:04;;;;;;;8.32;1.33;;;;;;;22.61;78.47;100464.88;5066682;28;20036;-66
2023/07/05 06:12:29;;;;;;;3.05;1.10;;;;;;;22.57;78.80;100469.81;5064186;28;20464;-66
2023/07/05 06:14:55;;;;;;;2.88;1.30;;;;;;;22.53;79.80;100476.59;5062453;28;20033;-66
2023/07/05 06:17:21;;;;;;;1.52;0.95;;;;;;;22.50;79.45;100471.72;5072628;28;20028;-66
2023/07/05 06:19:46;;;;;;;2.55;0.70;;;;;;;22.46;79.36;100476.66;5064374;28;20032;-66
2023/07/05 06:22:11;;;;;;;6.45;1.02;;;;;;;22.42;79.57;100474.69;5070575;28;20036;-66
2023/07/05 06:24:37;;;;;;;6.88;0.95;;;;;;;22.39;80.34;100481.25;5067634;28;20480;-66
2023/07/05 06:27:03;;;;;;;6.57;1.23;;;;;;;22.37;80.17;100480.66;5071160;28;20518;-66
2023/07/05 06:29:28;;;;;;;2.65;1.70;;;;;;;22.44;80.39;100484.03;5069661;28;20033;-66
2023/07/05 06:31:54;;;;;;;2.33;1.40;;;;;;;22.52;79.96;100490.91;5070809;28;20032;-66
2023/07/05 06:34:19;;;;;;;9.77;1.30;;;;;;;22.55;79.57;100495.78;5054609;28;20036;-66
2023/07/05 06:36:46;;;;;;;3.35;0.82;;;;;;;22.55;79.58;100500.28;5058658;28;20381;-67
2023/07/05 06:39:13;;;;;;;4.88;1.23;;;;;;;22.63;80.60;100500.78;5074119;28;20416;-66
2023/07/05 06:41:39;;;;;;;3.70;1.20;;;;;;;22.62;80.81;100520.41;5070365;28;20033;-67
2023/07/05 06:44:04;;;;;;;3.88;1.13;;;;;;;22.57;81.46;100536.19;5068019;28;20027;-66
2023/07/05 06:46:32;;;;;;;3.75;1.23;;;;;;;22.56;82.90;100552.34;5063941;28;20065;-66
2023/07/05 06:48:58;;;;;;;4.75;0.68;;;;;;;22.47;83.35;100567.75;5064700;28;20040;-66
2023/07/05 06:51:26;;;;;;;2.17;0.90;;;;;;;22.40;84.31;100577.63;5063066;28;20036;-65
2023/07/05 06:53:53;;;;;;;2.83;1.00;;;;;;;22.36;83.84;100577.25;5066583;28;20631;-65
2023/07/05 06:56:19;;;;;;;1.10;0.40;;;;;;;22.32;83.14;100578.69;5072197;28;20074;-66
2023/07/05 06:58:47;;;;;;;3.58;0.38;;;;;;;22.26;82.51;100573.44;5064038;28;20485;-67
2023/07/05 07:01:14;;;;;;;3.70;0.30;;;;;;;22.20;82.40;100566.41;5061548;28;20064;-66
2023/07/05 07:03:40;;;;;;;2.83;0.40;;;;;;;22.23;82.01;100571.22;5059871;28;20024;-66
2023/07/05 07:06:06;;;;;;;2.92;0.30;;;;;;;22.29;81.44;100573.03;5070864;28;20031;-65
2023/07/05 07:08:38;;;;;;;1.00;0.30;;;;;;;22.13;80.94;100564.59;5061947;28;20029;-67
2023/07/05 07:11:06;;;;;;;1.15;0.30;;;;;;;22.05;81.96;100570.19;5064541;28;20028;-66
2023/07/05 07:13:32;;;;;;;1.25;0.40;;;;;;;22.00;82.32;100577.94;5061926;28;20043;-67
2023/07/05 07:16:09;;;;;;;2.33;0.40;;;;;;;22.18;82.19;100580.69;5072138;28;20044;-66
2023/07/05 07:18:36;;;;;;;1.95;0.30;;;;;;;22.62;80.59;100573.53;5065578;28;20063;-67
2023/07/05 07:21:02;;;;;;;3.30;0.28;;;;;;;22.87;77.42;100562.84;5070505;28;20078;-66
2023/07/05 07:23:27;;;;;;;2.38;0.20;;;;;;;22.88;76.65;100553.03;5065818;28;20040;-66
2023/07/05 07:26:21;;;;;;;1.50;0.30;;;;;;;22.82;75.46;100557.38;5069448;28;20031;-64
2023/07/05 07:28:49;;;;;;;1.25;0.20;;;;;;;22.86;75.41;100555.09;5061850;28;20055;-66
2023/07/05 07:31:20;;;;;;;5.35;0.30;;;;;;;23.06;74.16;100550.34;5070358;28;20041;-66
2023/07/05 07:33:47;;;;;;;0.90;0.32;;;;;;;23.16;73.38;100540.78;5065928;28;20054;-66
2023/07/05 07:36:15;;;;;;;3.08;0.20;;;;;;;23.28;73.63;100532.84;5065963;28;20082;-65
2023/07/05 07:38:42;;;;;;;1.42;0.20;;;;;;;23.46;72.64;100532.00;5070247;28;20040;-67
2023/07/05 07:41:21;;;;;;;0.52;0.20;;;;;;;23.69;71.65;100532.06;5069062;28;20099;-67
2023/07/05 07:43:50;;;;;;;1.40;0.30;;;;;;;23.89;71.29;100530.94;5060856;28;20039;-67
2023/07/05 07:46:19;;;;;;;1.52;0.20;;;;;;;24.11;71.34;100535.44;5060662;28;20033;-67
2023/07/05 07:48:49;;;;;;;2.35;0.20;;;;;;;24.43;70.47;100527.94;5074224;28;20384;-67
2023/07/05 07:51:15;;;;;;;0.73;0.20;;;;;;;24.37;70.20;100520.88;5068795;28;20036;-66
2023/07/05 07:53:41;;;;;;;1.85;0.20;;;;;;;24.33;69.98;100514.41;5070934;28;20084;-66
2023/07/05 07:56:17;;;;;;;2.17;0.10;;;;;;;24.48;68.53;100505.94;5068262;28;20064;-66
2023/07/05 07:58:46;;;;;;;1.48;0.20;;;;;;;24.62;69.04;100490.47;5067317;28;20504;-68
2023/07/05 08:01:17;;;;;;;2.13;0.20;;;;;;;24.92;69.11;100496.41;5068521;28;20045;-66
2023/07/05 08:03:43;;;;;;;1.02;0.30;;;;;;;24.87;68.32;100488.31;5065798;28;20036;-67
2023/07/05 08:06:09;;;;;;;1.52;0.30;;;;;;;24.83;69.02;100494.34;5069504;28;20150;-68
2023/07/05 08:08:36;;;;;;;2.45;0.30;;;;;;;25.14;68.33;100486.69;5062252;28;20036;-67
2023/07/05 08:11:03;;;;;;;1.42;0.30;;;;;;;25.37;67.84;100482.31;5061730;28;20030;-66
2023/07/05 08:13:30;;;;;;;1.48;0.30;;;;;;;25.66;68.13;100480.38;5057643;28;20147;-67
2023/07/05 08:15:56;;;;;;;2.28;0.50;;;;;;;25.70;67.59;100482.31;5068129;28;20079;-67
2023/07/05 08:18:21;;;;;;;2.13;0.40;;;;;;;25.55;67.20;100478.56;5066351;28;20028;-66
2023/07/05 08:20:47;;;;;;;1.33;0.50;;;;;;;25.73;67.61;100479.16;5066847;28;20025;-67
2023/07/05 08:23:13;;;;;;;3.72;0.50;;;;;;;26.29;66.39;100484.50;5060540;28;20028;-67
2023/07/05 08:25:39;;;;;;;2.40;0.70;;;;;;;26.38;64.35;100483.84;5059406;28;20134;-67
2023/07/05 08:28:05;;;;;;;1.10;0.55;;;;;;;26.22;64.01;100475.84;5058745;28;20039;-68
2023/07/05 08:30:33;;;;;;;5.68;0.60;;;;;;;26.43;64.52;100470.56;5060082;28;20051;-67
2023/07/05 08:32:59;;;;;;;2.58;0.60;;;;;;;26.72;64.25;100468.47;5064132;28;20059;-68
2023/07/05 08:35:24;;;;;;;1.08;0.60;;;;;;;27.05;63.76;100461.34;5064654;28;20044;-67
2023/07/05 08:37:50;;;;;;;1.67;0.63;;;;;;;27.04;62.54;100454.38;5070351;28;20115;-67
2023/07/05 08:40:17;;;;;;;2.13;0.60;;;;;;;27.05;62.56;100456.00;5074061;28;20621;-67
2023/07/05 08:43:32;;;;;;;1.65;0.70;;;;;;;27.25;61.69;100453.50;5063004;28;20428;-67
2023/07/05 08:46:07;;;;;;;1.27;0.60;;;;;;;27.48;60.88;100448.84;5044876;28;20114;-68
2023/07/05 08:48:33;;;;;;;1.80;0.70;;;;;;;27.69;60.95;100440.75;5048463;28;20742;-68
2023/07/05 08:50:59;;;;;;;1.60;0.70;;;;;;;27.60;60.39;100446.84;5047600;28;20053;-67
2023/07/05 08:53:25;;;;;;;2.55;0.60;;;;;;;27.61;61.06;100443.91;5046543;28;21101;-67
2023/07/05 08:56:05;;;;;;;1.42;0.55;;;;;;;27.23;60.98;100446.78;5048188;28;20037;-67
2023/07/05 08:58:40;;;;;;;1.67;0.60;;;;;;;26.75;63.17;100448.47;5041870;28;20033;-67
2023/07/05 09:01:11;;;;;;;;;;;;;;;26.37;63.02;100455.53;5044906;28;20135;-66
2023/07/05 09:03:36;;;;;;;4.93;0.63;;;;;;;26.09;66.33;100461.00;5047221;28;19943;-68
2023/07/05 09:06:10;;;;;;;1.63;1.00;;;;;;;25.91;66.30;100470.09;5048367;28;20033;-67
2023/07/05 09:09:09;;;;;;;2.85;0.80;;;;;;;25.69;67.53;100474.56;5048669;28;20029;-66
2023/07/05 09:11:40;;;;;;;2.00;0.73;;;;;;;25.46;67.29;100475.53;5030497;28;20033;-67
2023/07/05 09:14:41;;;;;;;1.80;0.63;;;;;;;25.22;67.55;100458.03;5051135;28;20463;-67
2023/07/05 09:17:26;;;;;;;3.47;1.17;;;;;;;24.95;67.41;100447.97;5048219;28;20086;-67
2023/07/05 09:20:17;;;;;;;1.27;0.40;;;;;;;24.80;68.14;100440.50;5060041;28;20044;-67
2023/07/05 09:22:44;;;;;;;1.85;0.50;;;;;;;24.72;68.19;100432.88;5049007;28;20063;-67
2023/07/05 09:25:14;;;;;;;1.45;0.65;;;;;;;24.72;66.51;100429.41;5052082;28;20110;-66
2023/07/05 09:27:46;;;;;;;2.53;0.50;;;;;;;24.76;66.56;100443.88;5054011;28;20048;-67
2023/07/05 09:30:20;;;;;;;7.65;0.82;;;;;;;24.86;67.20;100443.25;5054837;28;20106;-66
2023/07/05 09:32:51;;;;;;;2.40;0.60;;;;;;;24.91;67.43;100446.81;5052849;28;20036;-67
2023/07/05 09:35:19;;;;;;;1.27;0.57;;;;;;;25.25;67.66;100447.69;5054381;28;20491;-66
2023/07/05 09:38:01;;;;;;;2.20;0.50;;;;;;;25.56;66.91;100440.97;5052167;28;20140;-67
2023/07/05 09:40:35;;;;;;;8.02;0.77;;;;;;;25.61;68.22;100438.41;5052265;28;20045;-67
2023/07/05 09:43:08;;;;;;;1.00;0.50;;;;;;;25.42;69.28;100437.88;5051694;28;20049;-66
2023/07/05 09:45:34;;;;;;;1.48;0.40;;;;;;;25.60;69.17;100433.31;5053837;28;20029;-67
2023/07/05 09:48:05;;;;;;;1.77;0.50;;;;;;;26.02;68.33;100431.78;5054041;28;20037;-66
2023/07/05 09:50:31;;;;;;;3.10;0.70;;;;;;;26.04;68.00;100435.03;5049949;28;20554;-67
2023/07/05 09:53:20;;;;;;;1.75;0.73;;;;;;;26.26;67.98;100424.38;5053465;28;20049;-67
2023/07/05 09:56:06;;;;;;;3.55;0.55;;;;;;;26.52;66.44;100420.16;5040257;28;20135;-66
2023/07/05 09:58:35;;;;;;;1.65;0.40;;;;;;;26.51;66.74;100428.41;5057100;28;20135;-67
2023/07/05 10:01:04;;;;;;;2.00;0.73;;;;;;;26.70;66.93;100433.16;5074752;28;20044;-67
2023/07/05 10:03:43;;;;;;;1.88;0.52;;;;;;;26.74;66.73;100426.28;5072059;28;20040;-68
2023/07/05 10:06:11;;;;;;;4.10;1.02;;;;;;;26.76;67.83;100426.81;5072145;28;20516;-67
2023/07/05 10:08:45;;;;;;;1.30;0.70;;;;;;;26.67;68.57;100436.34;5066485;28;20127;-68
2023/07/05 10:11:26;;;;;;;1.20;0.70;;;;;;;26.60;68.46;100442.94;5072938;28;21231;-66
2023/07/05 10:14:02;;;;;;;2.63;0.60;;;;;;;26.49;68.01;100442.00;5075737;28;20024;-68
2023/07/05 10:16:49;;;;;;;2.15;0.65;;;;;;;26.49;67.40;100449.22;5072686;28;20039;-67
2023/07/05 10:19:39;;;;;;;2.80;0.82;;;;;;;26.44;67.12;100440.13;5058575;28;20048;-68
2023/07/05 10:22:14;;;;;;;2.95;0.75;;;;;;;26.38;68.71;100442.97;5056110;28;20028;-68
2023/07/05 10:24:51;;;;;;;2.47;0.55;;;;;;;26.29;68.41;100437.22;5061976;28;20435;-67
2023/07/05 10:27:35;;;;;;;1.67;0.50;;;;;;;26.22;66.36;100439.28;5072798;28;20028;-67
2023/07/05 10:30:05;;;;;;;11.48;2.08;;;;;;;26.28;67.94;100442.81;5060992;28;20036;-67
2023/07/05 10:32:31;;;;;;;1.48;0.70;;;;;;;26.29;69.30;100449.78;5066413;28;20021;-67
2023/07/05 10:34:57;;;;;;;3.15;0.50;;;;;;;26.25;69.33;100441.44;5062929;28;20503;-67
2023/07/05 10:37:33;;;;;;;2.35;0.73;;;;;;;26.28;69.91;100440.94;5055951;28;20118;-67
2023/07/05 10:40:00;;;;;;;2.63;0.88;;;;;;;26.27;69.85;100435.84;5064688;28;20021;-67
2023/07/05 10:42:26;;;;;;;4.07;0.70;;;;;;;26.51;67.79;100436.41;5053800;28;20102;-66
2023/07/05 10:44:52;;;;;;;3.08;0.90;;;;;;;26.87;68.53;100432.28;5053647;28;20020;-66
2023/07/05 10:47:20;;;;;;;2.05;0.70;;;;;;;27.19;67.22;100441.16;5064180;28;20336;-67
2023/07/05 10:49:47;;;;;;;1.33;0.63;;;;;;;27.48;65.61;100440.81;5062947;28;20103;-66
2023/07/05 10:52:16;;;;;;;2.17;0.80;;;;;;;27.68;62.71;100432.97;5069234;28;20036;-67
2023/07/05 10:55:02;;;;;;;2.65;0.57;;;;;;;27.37;63.38;100435.41;5067514;28;20036;-68
2023/07/05 10:57:36;;;;;;;;;;;;;;;27.35;63.72;100429.53;5068115;28;20067;-67
2023/07/05 11:00:12;;;;;;;1.27;0.68;;;;;;;27.63;64.65;100430.25;5066593;28;19959;-66
2023/07/05 11:02:48;;;;;;;1.95;0.65;;;;;;;27.74;62.19;100426.59;5065958;28;20029;-66
2023/07/05 11:05:29;;;;;;;1.50;0.60;;;;;;;27.66;63.04;100419.84;5065626;28;20115;-67
2023/07/05 11:07:59;;;;;;;10.55;0.98;;;;;;;27.94;61.95;100415.16;5062701;28;20115;-67
2023/07/05 11:10:29;;;;;;;1.70;0.63;;;;;;;28.04;59.97;100420.59;5069151;28;20040;-65
2023/07/05 11:12:54;;;;;;;3.13;0.75;;;;;;;27.98;60.20;100419.75;5068871;28;20031;-65
2023/07/05 11:15:21;;;;;;;20.58;1.85;;;;;;;27.98;58.42;100424.31;5063821;28;20460;-66
2023/07/05 11:17:48;;;;;;;8.00;0.82;;;;;;;27.79;57.62;100417.78;5069877;28;20043;-66
2023/07/05 11:20:44;;;;;;;3.95;0.50;;;;;;;27.60;54.40;100414.72;5061881;28;20098;-67
2023/07/05 11:23:11;;;;;;;1.33;0.60;;;;;;;27.64;55.67;100405.13;5068243;28;20037;-66
2023/07/05 11:25:56;;;;;;;1.20;0.50;;;;;;;27.44;54.25;100406.56;5070328;28;20037;-66
2023/07/05 11:28:35;;;;;;;1.52;0.50;;;;;;;27.37;54.81;100397.16;5065699;28;20060;-67
2023/07/05 11:31:02;;;;;;;1.38;0.60;;;;;;;27.44;56.24;100401.19;5073055;28;20036;-66
2023/07/05 11:33:28;;;;;;;4.07;0.57;;;;;;;27.71;57.00;100411.06;5063094;28;20028;-66